Time;durP1;ratioP1;P1;durP2;ratioP2;P2;SDS_P1;SDS_P2;PMS_P1;PMS_P2;Temp;Humidity;BMP_temperature;BMP_pressure;BME280_temperature;BME280_humidity;BME280_pressure;Samples;Min_cycle;Max_cycle;Signal;HPM_P1;HPM_P2
2021/11/08 00:02:22;;;;;;;;;;;;;;;6.35;89.08;100093.06;4915010;29;19923;-84
2021/11/08 00:04:47;;;;;;;;;;;;;;;6.37;89.01;100099.19;4914999;29;19933;-84
2021/11/08 00:07:13;;;;;;;;;;;;;;;6.37;88.93;100099.19;4914709;29;19919;-84
2021/11/08 00:09:41;;;;;;;;;;;;;;;6.39;89.02;100096.53;4913572;29;19992;-84
2021/11/08 00:12:07;;;;;;;;;;;;;;;6.36;88.73;100095.66;4913758;29;19922;-85
2021/11/08 00:14:32;;;;;;;;;;;;;;;6.40;88.83;100093.88;4913291;29;19923;-84
2021/11/08 00:20:05;;;;;;;;;;;;;;;6.42;88.55;100094.69;4877705;29;20009;-85
2021/11/08 00:22:33;;;;;;;;;;;;;;;6.41;88.54;100102.63;4913427;29;20390;-85
2021/11/08 00:24:58;;;;;;;;;;;;;;;6.45;88.46;100104.31;4912622;29;19958;-85
2021/11/08 00:27:23;;;;;;;;;;;;;;;6.44;88.36;100092.03;4912232;29;19962;-84
2021/11/08 00:29:49;;;;;;;;;;;;;;;6.46;88.40;100095.50;4913458;29;20295;-84
2021/11/08 00:32:14;;;;;;;;;;;;;;;6.47;88.27;100089.34;4914675;29;19920;-84
2021/11/08 03:12:56;;;;;;;;;;;;;;;7.31;100.00;100134.00;5058499;23;20307;-85
2021/11/08 03:18:09;;;;;;;;;;;;;;;7.34;100.00;100128.66;4915161;29;19922;-85
2021/11/08 03:20:36;;;;;;;;;;;;;;;7.35;100.00;100125.09;4910954;29;19930;-85
2021/11/08 03:23:05;;;;;;;;;;;;;;;7.38;100.00;100119.75;4915280;29;20396;-86
2021/11/08 03:28:02;;;;;;;;;;;;;;;7.40;100.00;100119.69;4914986;29;20318;-85
2021/11/08 03:30:36;;;;;;;;;;;;;;;7.49;100.00;100122.13;4914453;29;20327;-85
2021/11/08 03:33:02;;;;;;;;;;;;;;;7.54;100.00;100122.88;4912345;29;20289;-85
2021/11/08 03:35:28;;;;;;;;;;;;;;;7.57;100.00;100121.94;4914661;29;19978;-84
2021/11/08 03:37:55;;;;;;;;;;;;;;;7.58;100.00;100121.91;4914884;29;19926;-85
2021/11/08 03:40:22;;;;;;;;;;;;;;;7.58;100.00;100121.03;4914485;29;19923;-85
2021/11/08 03:42:48;;;;;;;;;;;;;;;7.59;100.00;100120.97;4914634;29;19934;-85
2021/11/08 03:45:14;;;;;;;;;;;;;;;7.62;100.00;100122.69;4914481;29;19926;-84
2021/11/08 03:47:39;;;;;;;;;;;;;;;7.63;100.00;100130.56;4914413;29;19923;-84
2021/11/08 03:50:06;;;;;;;;;;;;;;;7.63;100.00;100129.69;4914564;29;20379;-84
2021/11/08 03:52:32;;;;;;;;;;;;;;;6.71;100.00;100137.97;4914531;29;19922;-84
2021/11/08 03:54:57;;;;;;;;;;;;;;;4.93;100.00;100139.31;4910388;29;19919;-84
2021/11/08 03:57:22;;;;;;;;;;;;;;;4.05;100.00;100145.63;4908797;29;19971;-84
2021/11/08 03:59:48;;;;;;;;;;;;;;;3.75;100.00;100147.66;4915630;29;19991;-84
2021/11/08 04:02:13;;;;;;;;;;;;;;;3.49;100.00;100155.78;4914390;29;19919;-84
2021/11/08 04:04:39;;;;;;;;;;;;;;;3.30;100.00;100161.13;4914401;29;19915;-84
2021/11/08 04:07:04;;;;;;;;;;;;;;;3.48;100.00;100172.34;4914220;29;19927;-85
2021/11/08 04:09:29;;;;;;;;;;;;;;;3.37;100.00;100168.09;4922299;29;19923;-84
2021/11/08 04:11:55;;;;;;;;;;;;;;;3.23;100.00;100181.25;4912965;29;19926;-84
2021/11/08 04:14:21;;;;;;;;;;;;;;;3.16;100.00;100168.22;4914312;29;20022;-84
2021/11/08 04:16:47;;;;;;;;;;;;;;;3.00;100.00;100178.81;4916110;29;19925;-83
2021/11/08 04:19:13;;;;;;;;;;;;;;;2.86;100.00;100172.78;4917861;29;19988;-84
2021/11/08 04:21:39;;;;;;;;;;;;;;;2.80;100.00;100170.19;4917984;29;19923;-84
2021/11/08 04:24:05;;;;;;;;;;;;;;;2.64;100.00;100175.47;4919175;29;19927;-84
2021/11/08 04:26:32;;;;;;;;;;;;;;;2.59;100.00;100166.78;4917874;29;19967;-84
2021/11/08 04:29:02;;;;;;;;;;;;;;;2.55;100.00;100170.28;4918374;29;19923;-84
2021/11/08 04:31:28;;;;;;;;;;;;;;;2.41;100.00;100179.91;4919118;29;19994;-84
2021/11/08 04:33:59;;;;;;;;;;;;;;;2.39;100.00;100179.91;4918982;29;20417;-84
2021/11/08 04:42:18;;;;;;;;;;;;;;;1.97;98.01;100189.63;4831727;29;19925;-84
2021/11/08 04:44:57;;;;;;;;;;;;;;;1.93;97.89;100204.44;4911564;29;19919;-84
2021/11/08 04:53:02;;;;;;;;;;;;;;;1.63;94.77;100207.94;4919057;29;19984;-84
2021/11/08 09:05:02;;;;;;;;;;;;;;;4.13;83.88;100341.41;4903495;29;19947;-83
2021/11/08 09:07:28;;;;;;;;;;;;;;;4.18;83.94;100334.38;4906561;29;20026;-83
2021/11/08 09:09:54;;;;;;;;;;;;;;;4.13;83.76;100338.78;4907978;29;19920;-84
2021/11/08 09:12:19;;;;;;;;;;;;;;;4.18;83.06;100336.97;4909155;29;19923;-84
2021/11/08 09:14:44;;;;;;;;;;;;;;;4.25;83.15;100331.69;4907127;29;20014;-84
2021/11/08 09:17:09;;;;;;;;;;;;;;;4.26;82.88;100336.94;4908012;29;19927;-83
2021/11/08 09:19:35;;;;;;;;;;;;;;;4.32;82.94;100350.00;4907622;29;19920;-84
2021/11/08 09:22:00;;;;;;;;;;;;;;;4.32;82.85;100339.50;4904881;29;19927;-83
2021/11/08 09:24:26;;;;;;;;;;;;;;;4.34;82.42;100328.97;4891612;29;19927;-83
2021/11/08 09:26:51;;;;;;;;;;;;;;;4.37;82.30;100326.31;4891489;29;19926;-83
2021/11/08 09:29:19;;;;;;;;;;;;;;;4.42;82.17;100319.31;4908428;29;19924;-83
2021/11/08 09:31:45;;;;;;;;;;;;;;;4.43;81.86;100331.50;4905609;29;19926;-83
2021/11/08 09:34:15;;;;;;;;;;;;;;;4.40;82.08;100334.16;4891682;29;19934;-83
2021/11/08 09:36:41;;;;;;;;;;;;;;;4.41;82.72;100343.78;4906024;29;20371;-84
2021/11/08 09:39:19;;;;;;;;;;;;;;;4.46;82.21;100341.13;4906118;29;20386;-83
2021/11/08 09:41:46;;;;;;;;;;;;;;;4.46;82.18;100338.50;4901544;29;20021;-84
2021/11/08 09:44:11;;;;;;;;;;;;;;;4.49;81.80;100347.22;4904152;29;19947;-83
2021/11/08 09:46:37;;;;;;;;;;;;;;;4.51;82.44;100353.31;4907401;29;20360;-83
2021/11/08 09:49:04;;;;;;;;;;;;;;;4.50;82.36;100343.72;4905723;29;19967;-83
2021/11/08 09:51:30;;;;;;;;;;;;;;;4.54;82.52;100342.78;4907298;29;19919;-83
2021/11/08 09:53:55;;;;;;;;;;;;;;;4.58;83.16;100342.75;4907047;29;19934;-84
2021/11/08 09:56:21;;;;;;;;;;;;;;;4.52;82.47;100347.19;4906481;29;19945;-84
2021/11/08 09:58:46;;;;;;;;;;;;;;;4.49;82.66;100351.59;4907894;29;19919;-82
2021/11/08 10:01:14;;;;;;;;;;;;;;;4.53;83.03;100359.44;4907827;29;20477;-83
2021/11/08 10:03:41;;;;;;;;;;;;;;;4.52;82.90;100357.69;4904598;29;19923;-83
2021/11/08 10:06:06;;;;;;;;;;;;;;;4.52;82.83;100360.31;4890074;29;20075;-83
2021/11/08 10:08:33;;;;;;;;;;;;;;;4.53;83.18;100356.81;4908589;29;20419;-84
2021/11/08 10:11:05;;;;;;;;;;;;;;;4.55;82.98;100356.81;4907759;29;19972;-83
2021/11/08 10:13:31;;;;;;;;;;;;;;;4.55;83.46;100360.28;4894970;29;19923;-83
2021/11/08 10:15:58;;;;;;;;;;;;;;;4.58;83.61;100358.50;4907170;29;20411;-83
2021/11/08 10:18:26;;;;;;;;;;;;;;;4.58;83.78;100358.50;4905537;29;20010;-83
2021/11/08 10:20:55;;;;;;;;;;;;;;;4.58;83.87;100350.63;4889191;29;19926;-84
2021/11/08 10:23:22;;;;;;;;;;;;;;;4.54;84.03;100355.91;4907286;29;19919;-83
2021/11/08 10:25:47;;;;;;;;;;;;;;;4.61;84.16;100354.13;4890780;29;19923;-83
2021/11/08 10:28:17;;;;;;;;;;;;;;;4.61;83.91;100353.22;4907093;29;19927;-83
2021/11/08 10:30:45;;;;;;;;;;;;;;;4.64;84.36;100351.47;4905302;29;20277;-83
2021/11/08 10:33:13;;;;;;;;;;;;;;;4.65;84.40;100353.19;4902863;29;19979;-84
2021/11/08 10:35:42;;;;;;;;;;;;;;;4.65;84.37;100355.81;4907284;29;19930;-83
2021/11/08 10:38:13;;;;;;;;;;;;;;;4.66;84.64;100359.31;4889159;29;19979;-83
2021/11/08 10:40:44;;;;;;;;;;;;;;;4.70;84.71;100358.41;4906149;29;19935;-83
2021/11/08 10:43:09;;;;;;;;;;;;;;;4.70;84.59;100355.78;4903013;29;19927;-83
2021/11/08 10:45:45;;;;;;;;;;;;;;;4.72;84.70;100359.25;4890416;29;19927;-83
2021/11/08 10:48:10;;;;;;;;;;;;;;;4.77;84.98;100362.72;4905526;29;20374;-84
2021/11/08 10:50:40;;;;;;;;;;;;;;;4.76;84.89;100350.47;4907104;29;19987;-83
2021/11/08 10:53:05;;;;;;;;;;;;;;;4.79;85.13;100349.56;4906852;29;19924;-82
2021/11/08 10:55:30;;;;;;;;;;;;;;;4.79;85.11;100350.44;4906154;29;19931;-84
2021/11/08 10:58:06;;;;;;;;;;;;;;;4.84;85.17;100353.88;4906007;29;19962;-83
2021/11/08 11:00:31;;;;;;;;;;;;;;;4.81;85.08;100348.66;4906127;29;20018;-83
2021/11/08 11:02:56;;;;;;;;;;;;;;;4.82;85.03;100355.66;4903859;29;20018;-84
2021/11/08 11:05:22;;;;;;;;;;;;;;;4.86;85.12;100346.00;4906752;29;19928;-83
2021/11/08 11:07:47;;;;;;;;;;;;;;;4.89;85.12;100344.19;4906012;29;20371;-83
2021/11/08 11:10:18;;;;;;;;;;;;;;;4.95;85.58;100350.28;4904751;29;19930;-83
2021/11/08 11:12:45;;;;;;;;;;;;;;;4.95;85.49;100350.28;4889660;29;19919;-84
2021/11/08 11:15:15;;;;;;;;;;;;;;;4.97;85.69;100345.88;4906825;29;20426;-84
2021/11/08 11:17:45;;;;;;;;;;;;;;;4.96;85.84;100334.47;4905149;29;19951;-83
2021/11/08 11:20:16;;;;;;;;;;;;;;;4.97;85.80;100335.38;4904917;29;19928;-82
2021/11/08 11:22:46;;;;;;;;;;;;;;;4.98;85.80;100335.34;4905351;29;19985;-82
2021/11/08 11:25:12;;;;;;;;;;;;;;;4.98;85.93;100326.59;4889912;29;19927;-83
2021/11/08 11:27:46;;;;;;;;;;;;;;;5.02;85.96;100330.94;4896337;29;19975;-84
2021/11/08 11:30:11;;;;;;;;;;;;;;;5.04;86.14;100321.25;4903737;29;19919;-82
2021/11/08 11:32:37;;;;;;;;;;;;;;;5.06;86.30;100323.00;4904717;29;19926;-83
2021/11/08 11:35:10;;;;;;;;;;;;;;;5.11;86.51;100319.47;4897197;29;20389;-83
2021/11/08 11:37:35;;;;;;;;;;;;;;;5.08;86.49;100321.22;4903259;29;19914;-83
2021/11/08 11:40:03;;;;;;;;;;;;;;;5.14;86.95;100320.28;4888102;29;20423;-83
2021/11/08 11:42:29;;;;;;;;;;;;;;;5.15;87.04;100327.25;4904722;29;20356;-83
2021/11/08 11:45:01;;;;;;;;;;;;;;;5.15;87.08;100329.88;4903789;29;19974;-83
2021/11/08 11:47:27;;;;;;;;;;;;;;;5.20;87.33;100325.47;4888212;29;19927;-83
2021/11/08 11:49:53;;;;;;;;;;;;;;;5.23;87.18;100320.19;4905567;29;19921;-82
2021/11/08 11:52:18;;;;;;;;;;;;;;;5.22;87.60;100318.44;4897438;29;19923;-83
2021/11/08 11:54:44;;;;;;;;;;;;;;;5.23;87.75;100319.28;4888431;29;20270;-83
2021/11/08 11:57:09;;;;;;;;;;;;;;;5.25;87.80;100312.28;4905231;29;19979;-83
2021/11/08 11:59:34;;;;;;;;;;;;;;;5.26;87.77;100304.38;4905620;29;19924;-83
2021/11/08 12:02:00;;;;;;;;;;;;;;;5.26;87.57;100299.13;4903257;29;19923;-83
2021/11/08 12:04:26;;;;;;;;;;;;;;;5.30;87.71;100301.69;4896700;29;19923;-83
2021/11/08 12:06:53;;;;;;;;;;;;;;;5.34;87.83;100300.75;4889680;29;19926;-83
2021/11/08 12:09:19;;;;;;;;;;;;;;;5.34;87.85;100301.63;4905302;29;20287;-83
2021/11/08 12:11:48;;;;;;;;;;;;;;;5.37;87.82;100295.47;4889319;29;19926;-83
2021/11/08 12:14:15;;;;;;;;;;;;;;;5.37;87.89;100295.47;4903415;29;19941;-83
2021/11/08 12:16:57;;;;;;;;;;;;;;;5.40;87.95;100300.69;4906425;29;20335;-82
2021/11/08 12:19:24;;;;;;;;;;;;;;;5.41;88.22;100295.41;4902855;29;20413;-83
2021/11/08 12:21:50;;;;;;;;;;;;;;;5.43;88.15;100293.63;4903224;29;19924;-83
2021/11/08 12:24:23;;;;;;;;;;;;;;;5.48;88.26;100300.59;4904953;29;19931;-83
2021/11/08 12:27:00;;;;;;;;;;;;;;;5.45;88.13;100294.47;4905261;29;19926;-83
2021/11/08 12:29:26;;;;;;;;;;;;;;;5.50;88.12;100293.53;4902422;29;20403;-83
2021/11/08 12:32:05;;;;;;;;;;;;;;;5.50;88.15;100286.50;4904659;29;19915;-82
2021/11/08 12:34:37;;;;;;;;;;;;;;;5.54;88.36;100293.47;4906008;29;19963;-83
2021/11/08 12:37:03;;;;;;;;;;;;;;;5.56;88.50;100296.09;4904758;29;19930;-82
2021/11/08 12:39:29;;;;;;;;;;;;;;;5.59;88.51;100299.53;4909032;29;19920;-84
2021/11/08 12:42:06;;;;;;;;;;;;;;;5.61;88.65;100299.50;4908147;29;20420;-83
2021/11/08 12:44:32;;;;;;;;;;;;;;;5.61;88.80;100289.84;4907890;29;19923;-83
2021/11/08 12:47:01;;;;;;;;;;;;;;;5.62;88.79;100288.97;4908527;29;20489;-83
2021/11/08 12:49:34;;;;;;;;;;;;;;;5.66;88.91;100297.69;4909189;29;20370;-83
2021/11/08 12:51:59;;;;;;;;;;;;;;;5.74;89.12;100293.16;4909051;29;20419;-83
2021/11/08 12:54:26;;;;;;;;;;;;;;;5.83;89.69;100292.19;4909078;29;19927;-84
2021/11/08 12:56:52;;;;;;;;;;;;;;;5.92;90.15;100291.16;4908073;29;19938;-83
2021/11/08 12:59:20;;;;;;;;;;;;;;;5.96;90.74;100290.22;4909141;29;20391;-83
2021/11/08 13:01:52;;;;;;;;;;;;;;;5.96;91.33;100279.69;4905894;29;19934;-82
2021/11/08 13:04:18;;;;;;;;;;;;;;;5.96;91.62;100284.97;4907540;29;19934;-83
2021/11/08 13:06:44;;;;;;;;;;;;;;;5.98;92.05;100280.56;4890722;29;19931;-83
2021/11/08 13:09:15;;;;;;;;;;;;;;;5.97;91.89;100282.34;4899869;29;19923;-83
2021/11/08 13:11:42;;;;;;;;;;;;;;;5.97;91.87;100276.22;4889973;29;19934;-82
2021/11/08 13:14:07;;;;;;;;;;;;;;;5.82;91.54;100277.28;4909276;29;20110;-83
2021/11/08 13:16:43;;;;;;;;;;;;;;;5.56;91.09;100283.81;4907541;29;20022;-83
2021/11/08 13:19:10;;;;;;;;;;;;;;;5.36;90.57;100283.22;4905973;29;19928;-83
2021/11/08 13:21:36;;;;;;;;;;;;;;;5.09;90.47;100286.19;4905865;29;19926;-83
2021/11/08 13:24:02;;;;;;;;;;;;;;;5.09;91.76;100290.59;4888110;29;19927;-84
2021/11/08 13:26:29;;;;;;;;;;;;;;;5.22;93.16;100294.78;4905264;29;20010;-84
2021/11/08 13:28:55;;;;;;;;;;;;;;;5.14;95.47;100288.75;4886844;29;20379;-83
2021/11/08 13:31:20;;;;;;;;;;;;;;;5.24;98.29;100290.38;4897602;29;19923;-82
2021/11/08 13:33:49;;;;;;;;;;;;;;;5.36;100.00;100298.97;4897783;29;20431;-83
2021/11/08 13:36:15;;;;;;;;;;;;;;;5.54;100.00;100288.22;4887896;29;19924;-84
2021/11/08 13:38:45;;;;;;;;;;;;;;;5.73;100.00;100293.22;4890644;29;19979;-83
2021/11/08 13:41:16;;;;;;;;;;;;;;;5.89;100.00;100283.31;4908597;29;19979;-83
2021/11/08 13:43:44;;;;;;;;;;;;;;;6.04;100.00;100291.00;4907654;29;19930;-84
2021/11/08 13:46:10;;;;;;;;;;;;;;;6.13;100.00;100287.38;4896319;29;19927;-84
2021/11/08 13:48:48;;;;;;;;;;;;;;;6.19;100.00;100287.28;4888273;29;19920;-84
2021/11/08 13:51:36;;;;;;;;;;;;;;;6.28;100.00;100281.81;4881968;29;20276;-84
2021/11/08 13:54:12;;;;;;;;;;;;;;;6.36;100.00;100284.31;4890538;29;19966;-84
2021/11/08 13:56:40;;;;;;;;;;;;;;;6.39;100.00;100286.06;4888380;29;19930;-84
2021/11/08 13:59:09;;;;;;;;;;;;;;;6.41;100.00;100282.47;4887572;29;19930;-84
2021/11/08 14:01:36;;;;;;;;;;;;;;;6.48;100.00;100288.53;4890648;29;20022;-84
2021/11/08 14:04:02;;;;;;;;;;;;;;;6.53;100.00;100282.25;4879246;29;20291;-84
2021/11/08 14:06:32;;;;;;;;;;;;;;;6.55;100.00;100274.34;4896409;29;19919;-84
2021/11/08 14:08:58;;;;;;;;;;;;;;;6.63;100.00;100284.72;4896717;29;19926;-84
2021/11/08 14:11:30;;;;;;;;;;;;;;;6.65;100.00;100275.91;4897589;29;19950;-84
2021/11/08 14:14:04;;;;;;;;;;;;;;;6.68;100.00;100270.56;4888202;29;19931;-84
2021/11/08 14:16:29;;;;;;;;;;;;;;;6.71;100.00;100267.88;4888654;29;19920;-84
2021/11/08 14:18:54;;;;;;;;;;;;;;;6.77;100.00;100266.03;4894169;29;20356;-84
2021/11/08 14:21:21;;;;;;;;;;;;;;;6.78;100.00;100267.75;4897194;29;19920;-84
2021/11/08 14:23:47;;;;;;;;;;;;;;;6.81;100.00;100272.97;4890942;29;19930;-83
2021/11/08 14:26:12;;;;;;;;;;;;;;;6.06;100.00;100283.09;4895931;29;19935;-84
2021/11/08 14:28:37;;;;;;;;;;;;;;;4.27;100.00;100287.94;4895764;29;19920;-84
2021/11/08 14:31:04;;;;;;;;;;;;;;;3.55;100.00;100291.97;4896900;29;19971;-84
2021/11/08 14:33:29;;;;;;;;;;;;;;;3.18;100.00;100297.41;4891144;29;20394;-84
2021/11/08 14:35:54;;;;;;;;;;;;;;;2.98;100.00;100294.88;4888907;29;19924;-84
2021/11/08 14:38:28;;;;;;;;;;;;;;;2.75;100.00;100295.81;4894861;29;19990;-84
2021/11/08 14:40:56;;;;;;;;;;;;;;;2.53;98.99;100298.47;4888328;29;19923;-84
2021/11/08 14:43:24;;;;;;;;;;;;;;;2.48;97.86;100296.75;4891983;29;19919;-84
2021/11/08 14:45:55;;;;;;;;;;;;;;;2.29;96.30;100299.38;4885453;29;20539;-84
2021/11/08 14:48:25;;;;;;;;;;;;;;;2.23;94.94;100304.63;4893517;29;19923;-84
2021/11/08 14:50:50;;;;;;;;;;;;;;;2.11;93.91;100305.50;4892884;29;20371;-84
2021/11/08 14:53:16;;;;;;;;;;;;;;;1.93;92.56;100311.59;4897545;29;19926;-84
2021/11/08 14:55:42;;;;;;;;;;;;;;;1.82;91.65;100308.09;4893955;29;19927;-84
2021/11/08 14:58:19;;;;;;;;;;;;;;;1.67;91.22;100308.94;4897364;29;19923;-84
2021/11/08 15:00:47;;;;;;;;;;;;;;;1.62;90.94;100306.31;4896051;29;19927;-84
2021/11/08 15:03:14;;;;;;;;;;;;;;;1.53;90.40;100310.66;4885485;29;19931;-84
2021/11/08 15:05:40;;;;;;;;;;;;;;;1.37;89.69;100312.34;4895007;29;20006;-84
2021/11/08 15:08:08;;;;;;;;;;;;;;;1.30;89.51;100308.84;4893790;29;19979;-83
2021/11/08 15:10:35;;;;;;;;;;;;;;;1.18;89.25;100308.81;4886168;29;20292;-83
2021/11/08 15:13:05;;;;;;;;;;;;;;;1.16;88.80;100310.53;4896069;29;19920;-84
2021/11/08 15:15:32;;;;;;;;;;;;;;;1.00;88.58;100309.59;4896201;29;19926;-84
2021/11/08 15:18:24;;;;;;;;;;;;;;;0.90;88.19;100314.78;4894670;29;19931;-84
2021/11/08 15:20:58;;;;;;;;;;;;;;;0.84;87.78;100313.88;4882924;29;19930;-84
2021/11/08 15:23:24;;;;;;;;;;;;;;;0.74;87.86;100318.19;4895788;29;19923;-84
2021/11/08 15:25:52;;;;;;;;;;;;;;;0.69;88.00;100315.53;4895032;29;19927;-84
2021/11/08 15:28:21;;;;;;;;;;;;;;;0.66;87.94;100312.03;4895922;29;19924;-84
2021/11/08 15:30:48;;;;;;;;;;;;;;;0.64;87.65;100304.22;4885043;29;20044;-85
2021/11/08 15:33:21;;;;;;;;;;;;;;;0.54;87.38;100310.22;4888644;29;19925;-84
2021/11/08 15:35:49;;;;;;;;;;;;;;;0.53;87.28;100313.72;4893653;29;20276;-84
2021/11/08 15:38:17;;;;;;;;;;;;;;;0.46;87.31;100311.91;4888218;29;19920;-84
2021/11/08 15:40:43;;;;;;;;;;;;;;;0.36;87.16;100314.44;4877846;29;19927;-84
2021/11/08 15:43:08;;;;;;;;;;;;;;;0.29;87.06;100312.66;4891974;29;20081;-85
2021/11/08 15:45:38;;;;;;;;;;;;;;;0.40;87.28;100317.06;4886922;29;19939;-84
2021/11/08 15:48:03;;;;;;;;;;;;;;;0.26;87.02;100325.69;4894496;29;19923;-83
2021/11/08 15:50:28;;;;;;;;;;;;;;;0.31;87.24;100317.91;4887256;29;19933;-84
2021/11/08 15:52:54;;;;;;;;;;;;;;;0.27;87.38;100319.63;4895031;29;19920;-84
2021/11/08 15:55:22;;;;;;;;;;;;;;;0.20;87.17;100330.84;4893300;29;19962;-84
2021/11/08 15:57:47;;;;;;;;;;;;;;;0.49;90.02;100325.81;4892746;29;20398;-84
2021/11/08 16:00:13;;;;;;;;;;;;;;;0.72;92.39;100322.53;4896738;29;19920;-85
2021/11/08 16:02:38;;;;;;;;;;;;;;;0.87;94.27;100319.97;4892504;29;20474;-84
2021/11/08 16:05:04;;;;;;;;;;;;;;;1.21;96.42;100319.25;4895091;29;19927;-84
2021/11/08 16:07:30;;;;;;;;;;;;;;;1.50;98.64;100327.22;4894953;29;19924;-84
2021/11/08 16:09:55;;;;;;;;;;;;;;;1.67;99.98;100331.59;4878494;29;19978;-84
2021/11/08 16:12:20;;;;;;;;;;;;;;;1.76;100.00;100344.69;4894452;29;20010;-84
2021/11/08 16:14:45;;;;;;;;;;;;;;;1.84;100.00;100350.78;4898696;29;19923;-84
2021/11/08 16:17:11;;;;;;;;;;;;;;;1.93;100.00;100360.38;4895619;29;19949;-84
2021/11/08 16:19:36;;;;;;;;;;;;;;;1.96;100.00;100353.44;4897841;29;19975;-83
2021/11/08 16:22:01;;;;;;;;;;;;;;;2.00;100.00;100360.38;4897547;29;19931;-83
2021/11/08 16:24:26;;;;;;;;;;;;;;;2.07;100.00;100353.41;4899174;29;19923;-84
2021/11/08 16:26:52;;;;;;;;;;;;;;;2.08;100.00;100355.16;4896779;29;19927;-85
2021/11/08 16:29:21;;;;;;;;;;;;;;;2.13;100.00;100350.81;4898266;29;19924;-83
2021/11/08 16:31:47;;;;;;;;;;;;;;;2.15;100.00;100342.97;4891898;29;19987;-83
2021/11/08 16:34:12;;;;;;;;;;;;;;;2.20;100.00;100341.22;4897286;29;19924;-83
2021/11/08 16:36:37;;;;;;;;;;;;;;;2.23;100.00;100341.22;4898838;29;19920;-84
2021/11/08 16:39:02;;;;;;;;;;;;;;;2.26;100.00;100329.91;4898948;29;19941;-84
2021/11/08 16:41:28;;;;;;;;;;;;;;;2.91;100.00;100341.16;4899186;29;19927;-83
2021/11/08 16:43:53;;;;;;;;;;;;;;;2.58;100.00;100337.72;4898726;29;19920;-83
2021/11/08 16:46:20;;;;;;;;;;;;;;;2.42;100.00;100339.47;4900104;29;20378;-83
2021/11/08 16:48:49;;;;;;;;;;;;;;;2.45;100.00;100344.72;4897449;29;19972;-83
2021/11/08 16:51:15;;;;;;;;;;;;;;;2.45;100.00;100351.69;4894679;29;20397;-83
2021/11/08 16:53:42;;;;;;;;;;;;;;;2.49;100.00;100349.06;4890231;29;19924;-83
2021/11/08 16:56:09;;;;;;;;;;;;;;;2.57;100.00;100351.69;4893211;29;19967;-83
2021/11/08 16:58:34;;;;;;;;;;;;;;;2.58;100.00;100348.19;4900088;29;20280;-83
2021/11/08 17:01:00;;;;;;;;;;;;;;;2.58;100.00;100353.41;4899758;29;19931;-83
2021/11/08 17:03:27;;;;;;;;;;;;;;;2.62;100.00;100360.41;4898470;29;20181;-83
2021/11/08 17:06:01;;;;;;;;;;;;;;;2.65;100.00;100363.00;4898233;29;19923;-83
2021/11/08 17:08:38;;;;;;;;;;;;;;;2.64;100.00;100361.25;4899386;29;20359;-83
2021/11/08 17:11:23;;;;;;;;;;;;;;;2.67;99.89;100358.63;4889255;29;19931;-83
2021/11/08 17:13:50;;;;;;;;;;;;;;;2.70;99.45;100363.88;4890425;29;19927;-83
2021/11/08 17:16:17;;;;;;;;;;;;;;;2.75;98.69;100368.25;4898435;29;19979;-84
2021/11/08 17:18:42;;;;;;;;;;;;;;;2.73;98.13;100374.34;4892349;29;19923;-83
2021/11/08 17:21:08;;;;;;;;;;;;;;;2.78;97.18;100370.84;4899276;29;19923;-83
2021/11/08 17:23:35;;;;;;;;;;;;;;;2.85;96.58;100378.66;4899584;29;20431;-84
2021/11/08 17:26:01;;;;;;;;;;;;;;;2.81;95.72;100381.28;4897930;29;19919;-84
2021/11/08 17:28:26;;;;;;;;;;;;;;;2.98;95.34;100383.88;4897997;29;19981;-83
2021/11/08 17:30:52;;;;;;;;;;;;;;;2.98;94.13;100387.38;4897982;29;19931;-83
2021/11/08 17:33:17;;;;;;;;;;;;;;;3.04;93.54;100391.72;4896732;29;19919;-83
2021/11/08 17:35:42;;;;;;;;;;;;;;;3.07;93.04;100395.19;4898069;29;19942;-83
2021/11/08 17:38:08;;;;;;;;;;;;;;;3.12;92.54;100396.94;4891940;29;19923;-83
2021/11/08 17:40:33;;;;;;;;;;;;;;;3.05;91.65;100402.19;4897981;29;19920;-83
2021/11/08 17:42:59;;;;;;;;;;;;;;;3.05;90.53;100410.06;4897645;29;20014;-83
2021/11/08 17:45:25;;;;;;;;;;;;;;;3.17;90.07;100410.91;4896832;29;20376;-83
2021/11/08 17:47:50;;;;;;;;;;;;;;;3.19;89.17;100415.28;4896518;29;19919;-84
2021/11/08 17:50:17;;;;;;;;;;;;;;;3.30;88.62;100425.69;4897638;29;19923;-83
2021/11/08 17:52:43;;;;;;;;;;;;;;;3.15;87.84;100428.38;4898811;29;19929;-83
2021/11/08 17:55:12;;;;;;;;;;;;;;;3.17;87.35;100429.22;4898637;29;20276;-82
2021/11/08 17:57:37;;;;;;;;;;;;;;;3.28;87.01;100430.06;4889226;29;20380;-83
2021/11/08 18:00:05;;;;;;;;;;;;;;;3.27;86.63;100444.03;4897352;29;19919;-83
2021/11/08 18:02:30;;;;;;;;;;;;;;;3.18;85.29;100444.94;4896171;29;19931;-83
2021/11/08 18:04:56;;;;;;;;;;;;;;;3.23;85.38;100452.78;4897274;29;19923;-83
2021/11/08 18:07:22;;;;;;;;;;;;;;;3.26;84.93;100452.78;4898459;29;19974;-83
2021/11/08 18:09:48;;;;;;;;;;;;;;;3.29;84.61;100447.53;4898793;29;19923;-83
2021/11/08 18:12:13;;;;;;;;;;;;;;;3.34;84.24;100451.03;4896603;29;19991;-83
2021/11/08 18:14:42;;;;;;;;;;;;;;;3.35;83.44;100452.78;4897318;29;20483;-84
2021/11/08 18:17:08;;;;;;;;;;;;;;;3.32;83.34;100450.16;4897232;29;19927;-83
2021/11/08 18:19:37;;;;;;;;;;;;;;;3.26;83.26;100442.31;4881545;29;19920;-83
2021/11/08 18:24:34;;;;;;;;;;;;;;;3.31;82.99;100444.94;4898500;29;20023;-83
2021/11/08 18:27:01;;;;;;;;;;;;;;;3.32;82.33;100452.78;4895908;29;20298;-84
2021/11/08 18:29:28;;;;;;;;;;;;;;;3.36;82.76;100451.00;4891883;29;20026;-83
2021/11/08 18:31:55;;;;;;;;;;;;;;;3.43;82.58;100450.09;4895620;29;19915;-83
2021/11/08 18:34:23;;;;;;;;;;;;;;;3.40;81.88;100458.88;4896744;29;20063;-83
2021/11/08 18:37:08;;;;;;;;;;;;;;;3.55;82.18;100452.69;4897679;29;19975;-83
2021/11/08 18:39:37;;;;;;;;;;;;;;;3.48;81.82;100452.72;4896742;29;20409;-83
2021/11/08 18:42:03;;;;;;;;;;;;;;;3.54;81.55;100457.94;4897942;29;20450;-83
2021/11/08 18:44:28;;;;;;;;;;;;;;;3.62;81.77;100448.28;4897068;29;20368;-83
2021/11/08 18:46:55;;;;;;;;;;;;;;;3.65;81.33;100458.78;4896483;29;19923;-83
2021/11/08 18:49:21;;;;;;;;;;;;;;;3.69;81.22;100454.41;4895957;29;19962;-83
2021/11/08 18:51:47;;;;;;;;;;;;;;;3.74;81.90;100455.25;4896606;29;19919;-84
2021/11/08 18:54:12;;;;;;;;;;;;;;;3.66;80.91;100457.91;4898222;29;20370;-82
2021/11/08 18:56:38;;;;;;;;;;;;;;;3.61;80.83;100460.53;4897763;29;19926;-83
2021/11/08 18:59:03;;;;;;;;;;;;;;;3.66;80.73;100457.03;4897625;29;20011;-83
2021/11/08 19:04:19;;;;;;;;;;;;;;;3.69;80.51;100464.91;4896742;29;19930;-83
2021/11/08 19:09:13;;;;;;;;;;;;;;;3.71;79.68;100463.13;4896449;29;19930;-83
2021/11/08 19:11:42;;;;;;;;;;;;;;;3.77;79.69;100468.34;4888223;29;19916;-83
2021/11/08 19:14:09;;;;;;;;;;;;;;;3.88;79.56;100470.91;4897291;29;20272;-83
2021/11/08 19:16:35;;;;;;;;;;;;;;;3.76;79.49;100475.31;4897342;29;19930;-83
2021/11/08 19:19:03;;;;;;;;;;;;;;;3.84;80.00;100477.06;4896057;29;20337;-84
2021/11/08 19:21:29;;;;;;;;;;;;;;;3.85;79.26;100481.44;4897342;29;19920;-83
2021/11/08 19:23:54;;;;;;;;;;;;;;;3.92;79.68;100483.13;4897296;29;19922;-83
2021/11/08 19:26:22;;;;;;;;;;;;;;;3.88;79.81;100470.91;4897131;29;20284;-83
2021/11/08 19:28:48;;;;;;;;;;;;;;;3.98;79.36;100468.25;4897101;29;20447;-83
2021/11/08 19:31:14;;;;;;;;;;;;;;;3.90;79.33;100469.16;4897039;29;20014;-83
2021/11/08 19:33:43;;;;;;;;;;;;;;;3.98;79.15;100476.09;4896132;29;19959;-83
2021/11/08 19:38:59;;;;;;;;;;;;;;;4.01;79.72;100472.59;4897221;29;20010;-83
2021/11/08 19:41:25;;;;;;;;;;;;;;;4.05;79.46;100482.19;4895778;29;19979;-84
2021/11/08 19:43:50;;;;;;;;;;;;;;;4.07;79.53;100483.06;4896996;29;19955;-85
2021/11/08 19:46:15;;;;;;;;;;;;;;;4.06;79.82;100489.19;4897041;29;20407;-83
2021/11/08 19:48:40;;;;;;;;;;;;;;;4.13;79.38;100485.66;4894947;29;20278;-83
2021/11/08 19:51:06;;;;;;;;;;;;;;;4.23;79.18;100493.47;4897197;29;19991;-83
2021/11/08 19:53:33;;;;;;;;;;;;;;;4.23;78.98;100485.59;4896409;29;19920;-83
2021/11/08 19:55:58;;;;;;;;;;;;;;;4.22;78.72;100496.97;4896927;29;20056;-83
2021/11/08 19:58:24;;;;;;;;;;;;;;;4.26;79.23;100490.81;4896855;29;20407;-83
2021/11/08 20:00:52;;;;;;;;;;;;;;;4.36;78.78;100492.53;4896886;29;19930;-83
2021/11/08 20:03:19;;;;;;;;;;;;;;;4.37;79.11;100486.38;4895040;29;20307;-83